createdAt,value
2019-03-25T00:01:00.900Z,43.15
2019-03-25T00:03:29.139Z,43.20
2019-03-25T00:05:57.432Z,43.58
2019-03-25T00:08:25.723Z,43.85
2019-03-25T00:10:53.957Z,44.40
2019-03-25T00:13:22.296Z,44.33
2019-03-25T00:15:50.546Z,43.70
2019-03-25T00:18:18.833Z,42.33
2019-03-25T00:20:47.078Z,44.77
2019-03-25T00:23:15.321Z,44.85
2019-03-25T00:25:43.571Z,44.55
2019-03-25T00:28:13.750Z,44.77
2019-03-25T00:30:41.833Z,44.88
2019-03-25T00:33:10.111Z,45.48
2019-03-25T00:35:38.421Z,44.55
2019-03-25T00:38:06.684Z,45.58
2019-03-25T00:40:34.938Z,44.42
2019-03-25T00:43:03.202Z,44.05
2019-03-25T00:45:31.497Z,44.98
2019-03-25T00:47:59.746Z,44.93
2019-03-25T00:50:28.004Z,44.67
2019-03-25T00:52:56.267Z,46.28
2019-03-25T00:55:24.537Z,43.50
2019-03-25T00:57:52.798Z,44.42
2019-03-25T01:00:21.047Z,44.40
2019-03-25T01:02:49.291Z,43.80
2019-03-25T01:05:17.558Z,44.35
2019-03-25T01:07:45.835Z,42.58
2019-03-25T01:10:14.142Z,42.48
2019-03-25T01:12:42.418Z,44.03
2019-03-25T01:15:10.694Z,45.00
2019-03-25T01:17:38.954Z,45.12
2019-03-25T01:20:07.284Z,45.38
2019-03-25T01:22:35.594Z,45.33
2019-03-25T01:25:05.831Z,44.95
2019-03-25T01:27:34.101Z,44.35
2019-03-25T01:30:02.394Z,45.10
2019-03-25T01:32:30.670Z,45.43
2019-03-25T01:34:58.929Z,45.50
2019-03-25T01:37:27.178Z,45.05
2019-03-25T01:39:55.443Z,45.38
2019-03-25T01:42:23.689Z,45.90
2019-03-25T01:44:51.986Z,44.03
2019-03-25T01:47:20.232Z,44.77
2019-03-25T01:49:48.548Z,42.85
2019-03-25T01:52:16.901Z,44.13
2019-03-25T01:54:45.391Z,42.80
2019-03-25T01:57:13.836Z,43.05
2019-03-25T01:59:42.270Z,43.92
2019-03-25T02:02:10.818Z,41.50
2019-03-25T02:04:39.271Z,42.90
2019-03-25T02:07:07.722Z,41.50
2019-03-25T02:09:36.240Z,43.35
2019-03-25T02:12:04.633Z,42.75
2019-03-25T02:14:33.195Z,43.78
2019-03-25T02:17:01.612Z,43.02
2019-03-25T02:19:30.114Z,42.40
2019-03-25T02:21:58.589Z,45.10
2019-03-25T02:24:27.022Z,44.45
2019-03-25T02:26:55.432Z,44.75
2019-03-25T02:29:24.029Z,44.98
2019-03-25T02:31:52.408Z,42.85
2019-03-25T02:34:20.888Z,44.35
2019-03-25T02:36:49.331Z,43.20
2019-03-25T02:39:17.737Z,43.10
2019-03-25T02:41:46.183Z,43.48
2019-03-25T02:44:14.665Z,41.92
2019-03-25T02:46:43.180Z,42.65
2019-03-25T02:49:11.740Z,45.48
2019-03-25T02:51:40.161Z,43.02
2019-03-25T02:54:08.627Z,43.80
2019-03-25T02:56:37.137Z,44.85
2019-03-25T02:59:05.607Z,45.03
2019-03-25T03:01:34.035Z,44.58
2019-03-25T03:04:02.593Z,46.10
2019-03-25T03:06:31.067Z,45.20
2019-03-25T03:08:59.473Z,45.20
2019-03-25T03:11:27.947Z,44.38
2019-03-25T03:13:56.452Z,44.33
2019-03-25T03:16:24.914Z,44.40
2019-03-25T03:18:53.447Z,46.75
2019-03-25T03:21:21.887Z,46.05
2019-03-25T03:23:50.324Z,46.65
2019-03-25T03:26:18.841Z,48.08
2019-03-25T03:28:47.221Z,46.20
2019-03-25T03:31:15.708Z,44.60
2019-03-25T03:33:44.169Z,45.63
2019-03-25T03:36:12.604Z,45.45
2019-03-25T03:38:41.027Z,46.58
2019-03-25T03:41:09.504Z,44.73
2019-03-25T03:43:37.960Z,46.45
2019-03-25T03:46:06.441Z,45.65
2019-03-25T03:48:34.853Z,44.90
2019-03-25T03:51:03.353Z,45.08
2019-03-25T03:53:31.835Z,42.98
2019-03-25T03:56:12.604Z,42.98
2019-03-25T03:58:30.774Z,41.98
2019-03-25T04:00:59.097Z,41.92
2019-03-25T04:03:27.366Z,41.23
2019-03-25T04:05:55.671Z,39.27
2019-03-25T04:08:24.021Z,39.53
2019-03-25T04:10:52.320Z,39.75
2019-03-25T04:13:20.579Z,40.08
2019-03-25T04:15:48.936Z,40.10
2019-03-25T04:18:17.207Z,43.68
2019-03-25T04:20:45.506Z,41.40
2019-03-25T04:23:13.771Z,41.90
2019-03-25T04:25:42.165Z,42.60
2019-03-25T04:28:10.421Z,41.33
2019-03-25T04:30:38.686Z,40.65
2019-03-25T04:33:06.997Z,39.25
2019-03-25T04:35:35.239Z,40.03
2019-03-25T04:38:03.539Z,39.30
2019-03-25T04:40:31.804Z,39.70
2019-03-25T04:43:00.104Z,43.20
2019-03-25T04:45:28.387Z,40.52
2019-03-25T04:47:56.648Z,40.92
2019-03-25T04:50:24.944Z,39.65
2019-03-25T04:52:53.200Z,39.70
2019-03-25T04:55:21.485Z,40.17
2019-03-25T04:57:49.795Z,41.92
2019-03-25T05:00:21.303Z,42.73
2019-03-25T05:02:49.570Z,42.08
2019-03-25T05:05:17.928Z,41.88
2019-03-25T05:07:46.176Z,43.38
2019-03-25T05:10:14.437Z,42.55
2019-03-25T05:12:42.714Z,46.02
2019-03-25T05:15:11.049Z,43.38
2019-03-25T05:17:39.305Z,45.10
2019-03-25T05:20:07.729Z,45.83
2019-03-25T05:22:36.048Z,47.80
2019-03-25T05:25:05.770Z,48.40
2019-03-25T05:27:34.029Z,47.35
2019-03-25T05:30:02.280Z,47.53
2019-03-25T05:32:30.645Z,54.65
2019-03-25T05:34:58.888Z,51.05
2019-03-25T05:37:27.138Z,47.38
2019-03-25T05:39:55.437Z,49.73
2019-03-25T05:42:23.727Z,44.48
2019-03-25T05:44:51.982Z,45.60
2019-03-25T05:47:20.253Z,45.20
2019-03-25T05:49:48.583Z,46.35
2019-03-25T05:52:16.905Z,43.35
2019-03-25T05:54:45.234Z,44.20
2019-03-25T05:57:13.485Z,42.85
2019-03-25T05:59:41.735Z,42.95
2019-03-25T06:02:09.978Z,42.55
2019-03-25T06:04:38.276Z,38.58
2019-03-25T06:07:06.517Z,40.52
2019-03-25T06:09:34.780Z,40.17
2019-03-25T06:12:03.125Z,39.67
2019-03-25T06:14:31.377Z,35.55
2019-03-25T06:16:59.624Z,36.25
2019-03-25T06:19:27.890Z,36.08
2019-03-25T06:21:56.178Z,35.10
2019-03-25T06:24:24.573Z,32.88
2019-03-25T06:26:52.871Z,32.88
2019-03-25T06:29:21.208Z,29.80
2019-03-25T06:31:49.466Z,29.77
2019-03-25T06:34:17.784Z,26.82
2019-03-25T06:36:46.100Z,26.37
2019-03-25T06:39:14.363Z,24.80
2019-03-25T06:41:42.630Z,24.65
2019-03-25T06:44:10.932Z,24.50
2019-03-25T06:46:39.200Z,24.67
2019-03-25T06:49:07.553Z,23.05
2019-03-25T06:51:35.919Z,24.23
2019-03-25T06:54:04.266Z,23.47
2019-03-25T06:56:32.543Z,22.75
2019-03-25T06:59:00.810Z,22.45
2019-03-25T07:01:29.043Z,22.15
2019-03-25T07:03:57.309Z,23.30
2019-03-25T07:06:25.587Z,22.90
2019-03-25T07:08:53.885Z,23.07
2019-03-25T07:11:22.222Z,22.77
2019-03-25T07:13:50.487Z,20.77
2019-03-25T07:16:18.728Z,19.57
2019-03-25T07:18:47.004Z,18.92
2019-03-25T07:21:15.259Z,19.85
2019-03-25T07:23:43.523Z,18.85
2019-03-25T07:26:11.843Z,19.15
2019-03-25T07:28:40.070Z,19.37
2019-03-25T07:31:08.353Z,18.42
2019-03-25T07:33:36.615Z,18.70
2019-03-25T07:36:04.914Z,19.10
2019-03-25T07:38:33.228Z,16.07
2019-03-25T07:41:01.481Z,16.57
2019-03-25T07:43:29.917Z,15.53
2019-03-25T07:45:58.238Z,15.95
2019-03-25T07:48:26.508Z,15.78
2019-03-25T07:50:54.771Z,16.57
2019-03-25T07:53:23.059Z,15.85
2019-03-25T07:55:51.383Z,16.48
2019-03-25T07:58:19.740Z,14.85
2019-03-25T08:00:48.016Z,15.45
2019-03-25T08:03:16.322Z,14.70
2019-03-25T08:05:44.631Z,14.73
2019-03-25T08:08:12.957Z,14.45
2019-03-25T08:10:41.273Z,13.85
2019-03-25T08:13:09.547Z,13.60
2019-03-25T08:15:38.183Z,13.78
2019-03-25T08:18:06.491Z,13.95
2019-03-25T08:20:34.772Z,13.72
2019-03-25T08:23:03.094Z,13.22
2019-03-25T08:25:31.355Z,13.15
2019-03-25T08:28:00.580Z,13.20
2019-03-25T08:30:28.955Z,13.32
2019-03-25T08:32:57.209Z,12.37
2019-03-25T08:35:25.802Z,13.40
2019-03-25T08:37:54.049Z,13.45
2019-03-25T08:40:22.356Z,12.80
2019-03-25T08:42:50.649Z,12.15
2019-03-25T08:45:18.993Z,13.05
2019-03-25T08:47:47.258Z,13.22
2019-03-25T08:50:15.546Z,13.13
2019-03-25T08:52:43.804Z,12.98
2019-03-25T08:55:12.077Z,11.85
2019-03-25T08:57:40.335Z,12.40
2019-03-25T09:00:09.634Z,11.80
2019-03-25T09:02:37.928Z,11.97
2019-03-25T09:05:07.230Z,12.63
2019-03-25T09:07:35.493Z,11.60
2019-03-25T09:10:06.198Z,11.35
2019-03-25T09:12:34.465Z,10.88
2019-03-25T09:15:03.080Z,11.40
2019-03-25T09:17:31.348Z,11.22
2019-03-25T09:19:59.582Z,10.63
2019-03-25T09:22:27.862Z,10.90
2019-03-25T09:24:56.210Z,10.20
2019-03-25T09:27:24.558Z,10.70
2019-03-25T09:29:52.886Z,9.08
2019-03-25T09:32:21.132Z,9.30
2019-03-25T09:34:49.403Z,9.78
2019-03-25T09:37:17.660Z,10.10
2019-03-25T09:39:45.953Z,9.85
2019-03-25T09:42:14.261Z,10.10
2019-03-25T09:44:42.517Z,10.20
2019-03-25T09:47:10.780Z,9.10
2019-03-25T09:49:39.035Z,9.48
2019-03-25T09:52:07.310Z,8.25
2019-03-25T09:54:35.570Z,8.30
2019-03-25T09:57:03.894Z,9.08
2019-03-25T09:59:32.158Z,9.63
2019-03-25T10:02:00.458Z,8.55
2019-03-25T10:04:28.713Z,7.60
2019-03-25T10:06:56.980Z,7.67
2019-03-25T10:09:25.256Z,7.90
2019-03-25T10:11:53.705Z,7.62
2019-03-25T10:14:22.055Z,7.70
2019-03-25T10:16:50.318Z,7.30
2019-03-25T10:19:18.615Z,6.90
2019-03-25T10:21:46.852Z,6.83
2019-03-25T10:24:15.287Z,7.17
2019-03-25T10:26:43.742Z,6.53
2019-03-25T10:29:12.064Z,6.70
2019-03-25T10:31:40.465Z,6.33
2019-03-25T10:34:08.759Z,6.22
2019-03-25T10:36:37.043Z,6.17
2019-03-25T10:39:06.661Z,6.10
2019-03-25T10:41:34.965Z,6.58
2019-03-25T10:44:03.211Z,5.53
2019-03-25T10:46:31.518Z,5.58
2019-03-25T10:48:59.760Z,5.00
2019-03-25T10:51:27.994Z,4.62
2019-03-25T10:53:56.271Z,4.87
2019-03-25T10:56:24.493Z,5.05
2019-03-25T10:58:58.087Z,4.55
2019-03-25T11:01:22.772Z,4.05
2019-03-25T11:03:51.033Z,3.60
2019-03-25T11:06:19.296Z,4.10
2019-03-25T11:08:47.588Z,2.72
2019-03-25T11:11:15.842Z,3.45
2019-03-25T11:13:44.071Z,3.12
2019-03-25T11:16:12.409Z,3.47
2019-03-25T11:18:40.672Z,3.55
2019-03-25T11:21:08.907Z,4.60
2019-03-25T11:23:37.247Z,3.77
2019-03-25T11:26:05.536Z,3.60
2019-03-25T11:28:33.795Z,3.65
2019-03-25T11:31:02.024Z,4.15
2019-03-25T11:33:30.311Z,3.00
2019-03-25T11:35:58.557Z,3.22
2019-03-25T11:38:26.803Z,2.45
2019-03-25T11:40:55.085Z,2.37
2019-03-25T11:43:23.361Z,2.40
2019-03-25T11:45:54.894Z,2.10
2019-03-25T11:48:23.165Z,5.72
2019-03-25T11:50:51.431Z,8.08
2019-03-25T11:53:20.191Z,2.30
2019-03-25T11:55:48.431Z,2.17
2019-03-25T11:58:16.784Z,2.40
2019-03-25T12:00:45.024Z,2.65
2019-03-25T12:03:13.298Z,2.60
2019-03-25T12:05:41.549Z,2.40
2019-03-25T12:08:09.784Z,2.02
2019-03-25T12:10:38.030Z,2.40
2019-03-25T12:13:07.926Z,2.55
2019-03-25T12:15:37.809Z,2.10
2019-03-25T12:18:06.324Z,2.10
2019-03-25T12:20:34.583Z,2.60
2019-03-25T12:23:02.854Z,2.35
2019-03-25T12:25:31.190Z,2.92
2019-03-25T12:27:59.455Z,2.50
2019-03-25T12:30:29.927Z,2.72
2019-03-25T12:33:03.895Z,3.00
2019-03-25T12:35:27.651Z,2.58
2019-03-25T12:37:55.970Z,3.00
2019-03-25T12:40:24.267Z,2.80
2019-03-25T12:42:52.512Z,2.85
2019-03-25T12:45:24.950Z,3.00
2019-03-25T12:47:50.754Z,2.77
2019-03-25T12:50:19.012Z,2.70
2019-03-25T12:52:47.310Z,3.00
2019-03-25T12:55:27.710Z,2.65
2019-03-25T12:57:57.597Z,3.22
2019-03-25T13:00:40.718Z,3.33
2019-03-25T13:03:08.998Z,2.80
2019-03-25T13:05:56.847Z,3.10
2019-03-25T13:08:32.990Z,3.22
2019-03-25T13:10:55.166Z,3.10
2019-03-25T13:13:23.424Z,3.00
2019-03-25T13:15:59.151Z,3.17
2019-03-25T13:18:27.509Z,3.08
2019-03-25T13:20:55.809Z,3.47
2019-03-25T13:23:24.404Z,5.50
2019-03-25T13:25:52.667Z,4.60
2019-03-25T13:28:20.922Z,3.87
2019-03-25T13:30:49.214Z,3.67
2019-03-25T13:33:17.468Z,3.75
2019-03-25T13:35:45.806Z,3.60
2019-03-25T13:38:14.082Z,3.85
2019-03-25T13:40:42.334Z,4.00
2019-03-25T13:43:10.537Z,3.40
2019-03-25T13:45:38.789Z,3.60
2019-03-25T13:48:07.069Z,3.40
2019-03-25T13:50:35.455Z,3.33
2019-03-25T13:53:03.703Z,3.17
2019-03-25T13:55:31.950Z,4.28
2019-03-25T13:58:00.261Z,5.60
2019-03-25T14:00:37.064Z,3.70
2019-03-25T14:03:05.369Z,2.85
2019-03-25T14:05:33.701Z,3.30
2019-03-25T14:08:01.982Z,2.75
2019-03-25T14:10:30.219Z,2.60
2019-03-25T14:12:58.474Z,2.00
2019-03-25T14:15:26.702Z,2.20
2019-03-25T14:17:54.986Z,1.95
2019-03-25T14:20:23.229Z,2.00
2019-03-25T14:22:51.510Z,2.22
2019-03-25T14:25:19.839Z,2.30
2019-03-25T14:27:48.116Z,2.60
2019-03-25T14:30:16.375Z,2.40
2019-03-25T14:32:44.635Z,2.55
2019-03-25T14:35:12.918Z,3.22
2019-03-25T14:37:41.185Z,2.80
2019-03-25T14:40:09.446Z,3.10
2019-03-25T14:42:37.712Z,2.62
2019-03-25T14:45:06.611Z,2.62
2019-03-25T14:47:34.895Z,2.90
2019-03-25T14:50:04.419Z,3.27
2019-03-25T14:52:32.700Z,3.65
2019-03-25T14:55:00.949Z,3.50
2019-03-25T14:57:29.184Z,3.85
2019-03-25T14:59:57.455Z,4.10
2019-03-25T15:02:25.707Z,4.58
2019-03-25T15:04:53.978Z,4.40
2019-03-25T15:07:22.279Z,4.28
2019-03-25T15:09:50.529Z,4.30
2019-03-25T15:12:18.798Z,3.60
2019-03-25T15:14:47.053Z,3.05
2019-03-25T15:17:15.278Z,2.90
2019-03-25T15:19:43.536Z,2.40
2019-03-25T15:22:11.858Z,2.52
2019-03-25T15:24:40.098Z,2.70
2019-03-25T15:27:08.334Z,2.58
2019-03-25T15:29:36.651Z,2.40
2019-03-25T15:32:04.879Z,2.33
2019-03-25T15:34:33.124Z,1.92
2019-03-25T15:37:01.436Z,1.90
2019-03-25T15:39:29.686Z,2.22
2019-03-25T15:41:57.991Z,2.10
2019-03-25T15:44:26.245Z,2.20
2019-03-25T15:46:55.931Z,2.62
2019-03-25T15:49:24.392Z,2.17
2019-03-25T15:51:52.683Z,11.78
2019-03-25T15:54:20.978Z,5.85
2019-03-25T15:56:49.252Z,3.35
2019-03-25T15:59:17.494Z,3.50
2019-03-25T16:01:45.734Z,4.87
2019-03-25T16:04:16.596Z,3.30
2019-03-25T16:06:44.881Z,3.85
2019-03-25T16:09:14.005Z,5.60
2019-03-25T16:11:42.007Z,3.20
2019-03-25T16:14:13.233Z,3.45
2019-03-25T16:16:41.477Z,3.77
2019-03-25T16:19:09.851Z,4.20
2019-03-25T16:21:38.108Z,6.33
2019-03-25T16:24:06.382Z,4.03
2019-03-25T16:26:34.623Z,3.37
2019-03-25T16:29:03.226Z,4.05
2019-03-25T16:31:31.503Z,4.15
2019-03-25T16:33:59.935Z,4.25
2019-03-25T16:36:28.188Z,4.30
2019-03-25T16:38:56.430Z,5.08
2019-03-25T16:41:24.613Z,4.33
2019-03-25T16:43:53.051Z,2.90
2019-03-25T16:46:21.357Z,2.40
2019-03-25T16:48:49.618Z,2.33
2019-03-25T16:51:17.871Z,2.58
2019-03-25T16:53:46.109Z,2.62
2019-03-25T16:56:14.352Z,2.30
2019-03-25T16:58:42.609Z,2.65
2019-03-25T17:01:10.870Z,2.20
2019-03-25T17:03:41.054Z,2.65
2019-03-25T17:06:09.301Z,2.33
2019-03-25T17:08:39.284Z,2.45
2019-03-25T17:11:07.560Z,2.67
2019-03-25T17:13:35.969Z,2.47
2019-03-25T17:16:04.208Z,2.77
2019-03-25T17:18:32.619Z,3.00
2019-03-25T17:21:00.906Z,2.87
2019-03-25T17:23:31.013Z,2.90
2019-03-25T17:25:59.277Z,3.22
2019-03-25T17:28:27.506Z,3.10
2019-03-25T17:30:55.785Z,3.27
2019-03-25T17:33:24.032Z,3.30
2019-03-25T17:35:52.275Z,3.12
2019-03-25T17:38:20.530Z,3.30
2019-03-25T17:40:48.903Z,2.85
2019-03-25T17:43:17.160Z,2.67
2019-03-25T17:45:48.151Z,2.85
2019-03-25T17:48:16.412Z,3.15
2019-03-25T17:50:44.714Z,2.47
2019-03-25T17:53:14.596Z,2.85
2019-03-25T17:55:44.518Z,2.92
2019-03-25T17:58:12.793Z,3.00
2019-03-25T18:00:47.357Z,3.30
2019-03-25T18:03:15.629Z,2.75
2019-03-25T18:05:43.864Z,2.65
2019-03-25T18:08:13.743Z,2.90
2019-03-25T18:10:41.987Z,3.15
2019-03-25T18:13:10.281Z,3.00
2019-03-25T18:15:38.580Z,3.10
2019-03-25T18:18:06.842Z,3.02
2019-03-25T18:20:35.098Z,3.40
2019-03-25T18:23:06.745Z,3.17
2019-03-25T18:25:34.973Z,3.30
2019-03-25T18:28:03.221Z,3.37
2019-03-25T18:30:32.729Z,3.33
2019-03-25T18:33:00.981Z,2.90
2019-03-25T18:35:32.529Z,3.00
2019-03-25T18:38:00.896Z,2.92
2019-03-25T18:40:29.159Z,3.25
2019-03-25T18:42:57.516Z,2.62
2019-03-25T18:45:25.741Z,2.90
2019-03-25T18:47:54.013Z,2.85
2019-03-25T18:50:22.265Z,2.47
2019-03-25T18:52:50.522Z,2.40
2019-03-25T18:55:20.444Z,2.62
2019-03-25T18:57:48.663Z,2.40
2019-03-25T19:00:34.135Z,9.35
2019-03-25T19:03:04.016Z,9.23
2019-03-25T19:05:32.336Z,6.90
2019-03-25T19:08:01.683Z,3.70
2019-03-25T19:10:30.012Z,7.78
2019-03-25T19:12:58.823Z,7.03
2019-03-25T19:15:27.143Z,3.33
2019-03-25T19:17:58.078Z,4.25
2019-03-25T19:20:26.450Z,4.05
2019-03-25T19:22:54.865Z,12.90
2019-03-25T19:25:23.167Z,44.77
2019-03-25T19:27:51.428Z,4.45
2019-03-25T19:30:19.736Z,3.15
2019-03-25T19:32:48.033Z,3.25
2019-03-25T19:35:16.385Z,3.42
2019-03-25T19:37:44.965Z,3.30
2019-03-25T19:40:13.289Z,3.10
2019-03-25T19:42:41.603Z,2.92
2019-03-25T19:45:09.946Z,2.95
2019-03-25T19:47:38.264Z,2.98
2019-03-25T19:50:06.968Z,2.83
2019-03-25T19:52:35.243Z,3.00
2019-03-25T19:55:06.556Z,2.75
2019-03-25T19:57:35.318Z,2.67
2019-03-25T20:00:05.455Z,2.87
2019-03-25T20:02:34.288Z,2.90
2019-03-25T20:05:02.824Z,2.92
2019-03-25T20:07:36.131Z,3.05
2019-03-25T20:10:01.453Z,5.17
2019-03-25T20:12:29.714Z,3.62
2019-03-25T20:14:58.136Z,2.20
2019-03-25T20:17:26.466Z,2.17
2019-03-25T20:19:54.832Z,2.30
2019-03-25T20:22:23.125Z,2.25
2019-03-25T20:24:51.526Z,2.37
2019-03-25T20:27:19.832Z,2.10
2019-03-25T20:29:48.100Z,2.12
2019-03-25T20:32:16.601Z,2.10
2019-03-25T20:34:45.427Z,2.10
2019-03-25T20:37:13.799Z,2.05
2019-03-25T20:39:42.100Z,2.30
2019-03-25T20:42:13.598Z,2.20
2019-03-25T20:44:41.930Z,2.10
2019-03-25T20:47:11.922Z,2.10
2019-03-25T20:49:40.311Z,2.40
2019-03-25T20:52:08.552Z,2.50
2019-03-25T20:54:36.825Z,2.40
2019-03-25T20:57:07.011Z,2.33
2019-03-25T20:59:35.329Z,2.67
2019-03-25T21:02:03.568Z,2.70
2019-03-25T21:04:31.825Z,2.87
2019-03-25T21:07:00.342Z,3.10
2019-03-25T21:09:28.632Z,3.42
2019-03-25T21:11:57.045Z,3.90
2019-03-25T21:14:25.381Z,3.75
2019-03-25T21:16:53.729Z,4.05
2019-03-25T21:19:22.027Z,5.17
2019-03-25T21:21:50.331Z,9.60
2019-03-25T21:24:21.681Z,8.00
2019-03-25T21:26:50.004Z,4.87
2019-03-25T21:29:18.378Z,4.47
2019-03-25T21:31:46.686Z,5.00
2019-03-25T21:34:16.621Z,5.17
2019-03-25T21:36:46.534Z,5.10
2019-03-25T21:39:14.921Z,5.20
2019-03-25T21:41:43.230Z,5.33
2019-03-25T21:44:11.672Z,4.92
2019-03-25T21:46:39.983Z,5.30
2019-03-25T21:49:08.363Z,5.00
2019-03-25T21:51:36.652Z,5.08
2019-03-25T21:54:05.024Z,5.40
2019-03-25T21:56:34.949Z,5.10
2019-03-25T21:59:04.827Z,5.10
2019-03-25T22:01:36.252Z,5.70
2019-03-25T22:04:04.681Z,5.10
2019-03-25T22:06:32.913Z,5.25
2019-03-25T22:09:05.290Z,5.78
2019-03-25T22:11:33.605Z,5.37
2019-03-25T22:14:01.914Z,5.60
2019-03-25T22:16:30.185Z,5.20
2019-03-25T22:18:58.412Z,5.50
2019-03-25T22:21:26.917Z,5.10
2019-03-25T22:23:55.267Z,5.37
2019-03-25T22:26:23.560Z,5.12
2019-03-25T22:28:51.980Z,5.10
2019-03-25T22:31:20.206Z,5.35
2019-03-25T22:33:48.471Z,14.30
2019-03-25T22:36:21.447Z,7.45
2019-03-25T22:38:49.786Z,7.58
2019-03-25T22:41:18.024Z,5.92
2019-03-25T22:43:46.804Z,4.55
2019-03-25T22:46:15.068Z,5.00
2019-03-25T22:48:45.212Z,4.55
2019-03-25T22:51:13.533Z,4.97
2019-03-25T22:53:51.302Z,4.87
2019-03-25T22:56:19.768Z,8.58
2019-03-25T22:58:48.141Z,7.05
2019-03-25T23:01:16.526Z,5.40
2019-03-25T23:03:44.802Z,5.28
2019-03-25T23:06:13.097Z,4.97
2019-03-25T23:08:41.376Z,5.05
2019-03-25T23:11:09.604Z,4.62
2019-03-25T23:13:37.926Z,4.58
2019-03-25T23:16:06.199Z,5.20
2019-03-25T23:18:34.525Z,4.78
2019-03-25T23:21:02.776Z,5.05
2019-03-25T23:23:31.051Z,5.20
2019-03-25T23:25:59.287Z,5.55
2019-03-25T23:28:27.559Z,5.10
2019-03-25T23:30:57.431Z,5.08
2019-03-25T23:33:25.693Z,5.03
2019-03-25T23:35:53.948Z,4.37
2019-03-25T23:38:22.194Z,4.03
2019-03-25T23:40:53.508Z,4.10
2019-03-25T23:43:21.772Z,4.72
2019-03-25T23:45:50.007Z,4.42
2019-03-25T23:48:18.286Z,4.70
2019-03-25T23:50:49.393Z,4.85
2019-03-25T23:53:17.736Z,5.30
2019-03-25T23:55:46.011Z,5.08
2019-03-25T23:58:14.332Z,5.45
